Time;durP1;ratioP1;P1;durP2;ratioP2;P2;SDS_P1;SDS_P2;PMS_P1;PMS_P2;Temp;Humidity;BMP_temperature;BMP_pressure;BME280_temperature;BME280_humidity;BME280_pressure;Samples;Min_cycle;Max_cycle;Signal;HPM_P1;HPM_P2
2022/12/22 03:28:08;;;;;;;0.80;0.65;;;7.60;99.50;;;;;;5024635;28;20228;-55
2022/12/22 03:30:37;;;;;;;0.68;0.50;;;7.60;99.50;;;;;;5024983;28;20193;-54
2022/12/22 03:33:07;;;;;;;1.15;0.55;;;7.60;99.50;;;;;;5024728;28;20227;-54
2022/12/22 03:35:36;;;;;;;0.57;0.50;;;7.60;99.50;;;;;;5015836;28;20226;-51
2022/12/22 03:38:04;;;;;;;0.70;0.57;;;7.60;99.40;;;;;;5023202;28;20213;-51
2022/12/22 03:40:33;;;;;;;0.50;0.50;;;7.60;99.40;;;;;;5021406;28;20570;-54
2022/12/22 03:48:42;;;;;;;0.70;0.50;;;7.60;99.40;;;;;;5022013;28;20653;-50
2022/12/22 03:51:11;;;;;;;1.00;0.70;;;7.60;99.40;;;;;;5025292;28;20204;-49
2022/12/22 03:53:39;;;;;;;0.60;0.60;;;7.60;99.40;;;;;;5020485;28;20616;-53
2022/12/22 03:56:08;;;;;;;0.60;0.50;;;7.60;99.40;;;;;;5026302;28;20209;-53
2022/12/22 03:58:37;;;;;;;0.85;0.50;;;7.60;99.90;;;;;;5015669;28;20283;-52
2022/12/22 04:01:06;;;;;;;0.50;0.50;;;7.60;99.40;;;;;;5016570;28;20185;-55
2022/12/22 04:03:35;;;;;;;0.80;0.60;;;7.60;99.40;;;;;;5026001;28;20205;-54
2022/12/22 04:06:05;;;;;;;0.70;0.60;;;7.60;99.40;;;;;;5028525;28;20724;-52
2022/12/22 04:08:34;;;;;;;0.88;0.70;;;7.60;99.40;;;;;;5027077;28;20232;-53
2022/12/22 04:13:48;;;;;;;0.90;0.73;;;7.60;99.40;;;;;;5027033;28;20264;-52
2022/12/22 04:16:17;;;;;;;1.25;0.43;;;7.60;99.40;;;;;;5028563;28;20590;-53
2022/12/22 04:18:45;;;;;;;0.80;0.52;;;7.60;99.40;;;;;;5012174;28;20284;-52
2022/12/22 04:21:15;;;;;;;0.60;0.50;;;7.60;99.40;;;;;;5028673;28;20189;-53
2022/12/22 04:23:44;;;;;;;0.60;0.50;;;7.60;99.40;;;;;;5025768;28;20221;-50
2022/12/22 04:26:12;;;;;;;1.55;0.68;;;7.60;99.30;;;;;;5028264;28;20209;-50
2022/12/22 04:28:41;;;;;;;1.48;0.55;;;7.60;99.30;;;;;;5026674;28;20303;-52
2022/12/22 04:31:10;;;;;;;0.80;0.45;;;7.60;99.30;;;;;;5028597;28;20243;-53
2022/12/22 04:33:38;;;;;;;0.70;0.50;;;7.60;99.30;;;;;;5046993;28;20278;-53
2022/12/22 04:36:08;;;;;;;3.88;0.60;;;7.60;99.30;;;;;;5028447;28;20301;-51
2022/12/22 04:38:38;;;;;;;1.60;0.95;;;7.60;99.30;;;;;;5026500;28;20221;-53
2022/12/22 04:41:07;;;;;;;0.80;0.50;;;7.60;99.30;;;;;;5044639;28;20231;-54
2022/12/22 04:43:36;;;;;;;0.80;0.75;;;7.60;99.30;;;;;;5027143;28;20307;-51
2022/12/22 04:46:05;;;;;;;0.82;0.70;;;7.60;99.30;;;;;;5028137;28;20647;-52
2022/12/22 04:48:34;;;;;;;0.93;0.73;;;7.60;99.30;;;;;;5032417;28;20220;-51
2022/12/22 04:51:04;;;;;;;0.63;0.47;;;7.60;99.30;;;;;;5028224;28;20225;-52
2022/12/22 04:53:32;;;;;;;0.95;0.68;;;7.60;99.30;;;;;;5028246;28;20229;-53
2022/12/22 04:56:05;;;;;;;0.63;0.50;;;7.60;99.30;;;;;;5028789;28;20221;-50
2022/12/22 04:58:35;;;;;;;0.70;0.40;;;7.60;99.30;;;;;;5027361;28;20243;-55
2022/12/22 05:01:12;;;;;;;0.70;0.50;;;7.60;99.20;;;;;;5027959;28;20566;-52
2022/12/22 05:03:40;;;;;;;0.70;0.50;;;7.60;99.20;;;;;;5004619;28;20222;-53
2022/12/22 05:06:09;;;;;;;0.50;0.45;;;7.60;99.20;;;;;;5024143;28;20246;-52
2022/12/22 05:08:38;;;;;;;0.65;0.40;;;7.60;99.20;;;;;;5006091;28;20252;-53
2022/12/22 05:11:08;;;;;;;0.70;0.70;;;7.60;99.20;;;;;;5007724;28;20236;-53
2022/12/22 05:13:37;;;;;;;0.80;0.50;;;7.60;99.20;;;;;;5019408;28;20252;-51
2022/12/22 05:16:06;;;;;;;0.63;0.50;;;7.60;99.20;;;;;;5009627;28;20721;-51
2022/12/22 05:18:39;;;;;;;1.17;0.60;;;7.60;99.30;;;;;;5044415;28;20576;-52
2022/12/22 05:21:10;;;;;;;0.70;0.50;;;7.60;99.30;;;;;;5028569;28;20197;-53
2022/12/22 05:23:39;;;;;;;0.60;0.30;;;7.60;99.20;;;;;;5026513;28;20237;-54
2022/12/22 05:26:10;;;;;;;0.70;0.60;;;7.60;99.20;;;;;;5038199;28;20213;-52
2022/12/22 05:28:38;;;;;;;0.60;0.32;;;7.60;99.30;;;;;;5008012;28;20228;-55
2022/12/22 05:31:08;;;;;;;0.98;0.57;;;7.60;99.30;;;;;;5020399;28;20312;-54
2022/12/22 05:33:37;;;;;;;0.65;0.43;;;7.60;99.20;;;;;;5006727;28;20228;-51
2022/12/22 05:36:06;;;;;;;0.98;0.63;;;7.60;99.20;;;;;;5007905;28;20206;-52
2022/12/22 05:38:35;;;;;;;0.50;0.40;;;7.60;99.20;;;;;;5006884;28;20225;-54
2022/12/22 05:41:03;;;;;;;0.90;0.50;;;7.60;99.20;;;;;;5007909;28;20635;-54
2022/12/22 05:43:34;;;;;;;0.63;0.52;;;7.60;99.20;;;;;;5017051;28;20222;-52
2022/12/22 05:46:03;;;;;;;0.50;0.40;;;7.60;99.20;;;;;;5008412;28;20213;-52
2022/12/22 05:48:33;;;;;;;0.60;0.50;;;7.60;99.20;;;;;;5003655;28;20223;-53
2022/12/22 05:51:08;;;;;;;0.90;0.60;;;7.70;99.20;;;;;;5023049;28;20206;-51
2022/12/22 05:53:37;;;;;;;0.60;0.47;;;7.60;99.20;;;;;;5006160;28;20234;-52
2022/12/22 05:56:07;;;;;;;0.60;0.50;;;7.60;99.20;;;;;;5023829;28;20724;-53
2022/12/22 05:58:38;;;;;;;1.75;0.60;;;7.60;99.20;;;;;;5008491;28;20300;-53
2022/12/22 06:01:07;;;;;;;0.73;0.60;;;7.60;99.20;;;;;;5006980;28;20193;-51
2022/12/22 06:03:36;;;;;;;0.70;0.50;;;7.60;99.20;;;;;;5006340;28;20364;-52
2022/12/22 06:06:05;;;;;;;0.50;0.45;;;7.60;99.20;;;;;;5015556;28;20643;-50
2022/12/22 06:08:33;;;;;;;0.82;0.43;;;7.70;99.20;;;;;;5007029;28;20597;-54
2022/12/22 06:11:02;;;;;;;0.65;0.45;;;7.60;99.20;;;;;;5007022;28;20202;-52
2022/12/22 06:13:30;;;;;;;0.70;0.30;;;7.60;99.20;;;;;;5005599;28;20233;-49
2022/12/22 06:16:00;;;;;;;0.88;0.40;;;7.60;99.20;;;;;;5007499;28;20222;-53
2022/12/22 06:18:29;;;;;;;0.50;0.30;;;7.60;99.20;;;;;;5008462;28;20224;-50
2022/12/22 06:20:57;;;;;;;0.90;0.50;;;7.60;99.20;;;;;;5007085;28;20532;-51
2022/12/22 06:23:26;;;;;;;0.80;0.40;;;7.60;99.20;;;;;;5022752;28;20222;-54
2022/12/22 06:25:56;;;;;;;0.60;0.50;;;7.70;99.20;;;;;;5013074;28;20206;-53
2022/12/22 06:28:25;;;;;;;0.50;0.50;;;7.60;99.20;;;;;;5022924;28;20791;-50
2022/12/22 06:30:55;;;;;;;0.70;0.40;;;7.60;99.10;;;;;;5004297;28;20673;-53
2022/12/22 06:33:25;;;;;;;1.13;0.50;;;7.70;99.20;;;;;;5001735;28;20823;-53
2022/12/22 06:35:53;;;;;;;0.50;0.43;;;7.70;99.20;;;;;;5007364;28;20313;-54
2022/12/22 06:38:27;;;;;;;1.20;1.00;;;7.60;99.10;;;;;;4983849;28;20297;-52
2022/12/22 06:40:56;;;;;;;0.88;0.60;;;7.70;99.20;;;;;;5007074;28;20281;-51
2022/12/22 06:43:24;;;;;;;0.50;0.30;;;7.70;99.20;;;;;;5014665;28;20218;-53
2022/12/22 06:45:53;;;;;;;0.65;0.60;;;7.60;99.10;;;;;;5006148;28;20226;-55
2022/12/22 06:48:23;;;;;;;0.70;0.40;;;7.60;99.10;;;;;;5004116;28;20279;-53
2022/12/22 06:50:56;;;;;;;0.80;0.60;;;7.70;99.20;;;;;;4999936;28;20202;-56
2022/12/22 06:53:25;;;;;;;0.95;0.50;;;7.70;99.20;;;;;;5006747;28;20280;-50
2022/12/22 06:55:54;;;;;;;1.15;0.50;;;7.60;99.10;;;;;;5012423;28;20272;-52
2022/12/22 06:58:22;;;;;;;0.60;0.40;;;7.70;99.10;;;;;;5006121;28;20218;-54
2022/12/22 07:00:51;;;;;;;0.95;0.60;;;7.70;99.10;;;;;;5005932;28;20243;-51
2022/12/22 07:03:19;;;;;;;0.60;0.45;;;7.70;99.20;;;;;;5005507;28;20241;-51
2022/12/22 07:05:49;;;;;;;0.60;0.45;;;7.70;99.10;;;;;;5006306;28;20232;-52
2022/12/22 07:08:18;;;;;;;0.50;0.50;;;7.70;99.10;;;;;;5005873;28;20213;-52
2022/12/22 07:10:59;;;;;;;0.82;0.60;;;7.70;99.10;;;;;;5004954;28;20224;-54
2022/12/22 07:13:30;;;;;;;0.95;0.40;;;7.70;99.10;;;;;;5005266;28;20735;-51
2022/12/22 07:15:59;;;;;;;0.68;0.43;;;7.70;99.10;;;;;;5006046;28;20298;-52
2022/12/22 07:18:31;;;;;;;0.50;0.40;;;7.70;99.10;;;;;;5007018;28;20214;-51
2022/12/22 07:21:03;;;;;;;0.55;0.50;;;7.70;99.10;;;;;;5006581;28;20194;-51
2022/12/22 07:23:32;;;;;;;0.80;0.50;;;7.70;99.10;;;;;;5005729;28;20300;-51
2022/12/22 07:26:00;;;;;;;0.65;0.50;;;7.70;99.10;;;;;;5021100;28;20502;-50
2022/12/22 07:28:29;;;;;;;0.70;0.65;;;7.70;99.10;;;;;;5022369;28;20217;-54
2022/12/22 07:30:57;;;;;;;1.40;0.45;;;7.70;99.10;;;;;;5022964;28;20226;-52
2022/12/22 07:33:26;;;;;;;0.70;0.50;;;7.70;99.10;;;;;;5015992;28;20221;-49
2022/12/22 07:36:08;;;;;;;0.65;0.47;;;7.70;99.20;;;;;;5024872;28;20495;-52
2022/12/22 07:38:39;;;;;;;0.50;0.40;;;7.70;99.20;;;;;;5023709;28;20314;-54
2022/12/22 07:42:43;;;;;;;0.50;0.40;;;7.70;99.10;;;;;;5040763;28;20568;-52
2022/12/22 07:44:00;;;;;;;0.70;0.40;;;7.70;99.10;;;;;;5017351;28;20224;-50
2022/12/22 07:46:30;;;;;;;0.70;0.50;;;7.70;99.20;;;;;;5024777;28;20221;-51
2022/12/22 07:51:49;;;;;;;0.68;0.47;;;7.70;99.10;;;;;;5020108;28;20300;-51
2022/12/22 07:54:18;;;;;;;0.80;0.60;;;7.70;99.10;;;;;;5009804;28;20205;-52
2022/12/22 07:56:47;;;;;;;0.88;0.40;;;7.70;99.10;;;;;;5007026;28;20205;-49
2022/12/22 07:59:16;;;;;;;0.90;0.70;;;7.70;99.10;;;;;;5005172;28;20201;-53
2022/12/22 08:01:44;;;;;;;0.70;0.50;;;7.70;99.10;;;;;;5006931;28;20229;-50
2022/12/22 08:04:13;;;;;;;0.68;0.45;;;7.70;99.10;;;;;;5025346;28;20186;-50
2022/12/22 08:06:44;;;;;;;0.85;0.55;;;7.70;99.10;;;;;;5025202;28;20212;-52
2022/12/22 08:09:20;;;;;;;1.00;0.70;;;7.70;99.10;;;;;;5036907;28;20913;-49
2022/12/22 08:11:49;;;;;;;1.88;0.70;;;7.70;99.10;;;;;;5013529;28;20226;-49
2022/12/22 08:14:22;;;;;;;3.75;0.80;;;7.70;99.10;;;;;;5027731;28;20646;-52
2022/12/22 08:16:50;;;;;;;0.80;0.60;;;7.70;99.10;;;;;;5022432;28;20194;-52
2022/12/22 08:19:19;;;;;;;0.60;0.60;;;7.70;99.10;;;;;;5025668;28;20699;-50
2022/12/22 08:21:47;;;;;;;1.40;0.68;;;7.70;99.20;;;;;;5026919;28;20671;-53
2022/12/22 08:24:22;;;;;;;0.82;0.68;;;7.70;99.20;;;;;;5025563;28;20292;-52
2022/12/22 08:26:57;;;;;;;0.50;0.40;;;7.70;99.20;;;;;;5026644;28;20193;-52
2022/12/22 08:29:30;;;;;;;0.82;0.73;;;7.70;99.20;;;;;;5010334;28;20205;-51
2022/12/22 08:31:59;;;;;;;1.63;1.00;;;7.70;99.20;;;;;;5024453;28;20229;-51
2022/12/22 08:34:28;;;;;;;0.70;0.50;;;7.70;99.20;;;;;;5007291;28;20202;-53
2022/12/22 08:36:59;;;;;;;0.70;0.60;;;7.70;99.20;;;;;;5008413;28;20650;-51
2022/12/22 08:39:32;;;;;;;1.20;1.00;;;7.70;99.20;;;;;;5008725;28;20209;-52
2022/12/22 08:42:03;;;;;;;1.10;0.60;;;7.70;99.20;;;;;;5017217;28;20206;-52
2022/12/22 08:44:31;;;;;;;2.75;0.88;;;7.70;99.70;;;;;;5025852;28;20229;-53
2022/12/22 08:47:00;;;;;;;1.30;0.93;;;7.70;99.20;;;;;;5021956;28;20217;-55
2022/12/22 08:49:29;;;;;;;1.05;0.90;;;7.70;99.20;;;;;;5026417;28;20294;-52
2022/12/22 08:51:57;;;;;;;1.67;1.30;;;7.70;99.20;;;;;;5025827;28;20525;-56
2022/12/22 08:54:25;;;;;;;1.10;0.98;;;7.70;99.30;;;;;;5028612;28;20214;-53
2022/12/22 08:56:57;;;;;;;1.55;1.23;;;7.70;99.20;;;;;;5027091;28;20276;-52
2022/12/22 08:59:25;;;;;;;1.60;1.45;;;7.70;99.30;;;;;;5026611;28;20197;-52
2022/12/22 09:01:54;;;;;;;1.05;0.73;;;7.70;99.20;;;;;;5010408;28;20201;-52
2022/12/22 09:04:24;;;;;;;1.02;0.90;;;7.70;99.70;;;;;;5008961;28;20221;-51
2022/12/22 09:06:53;;;;;;;1.40;1.25;;;7.70;99.20;;;;;;5008091;28;20535;-53
2022/12/22 09:09:21;;;;;;;1.25;1.15;;;7.70;99.20;;;;;;5004651;28;20217;-51
2022/12/22 09:11:50;;;;;;;3.67;1.50;;;7.70;99.20;;;;;;5006053;28;20226;-50
2022/12/22 09:14:19;;;;;;;1.30;1.20;;;7.70;99.20;;;;;;5007880;28;20540;-50
2022/12/22 09:16:49;;;;;;;1.88;1.40;;;7.70;99.20;;;;;;5007957;28;20229;-52
2022/12/22 09:19:17;;;;;;;1.45;1.10;;;7.70;99.20;;;;;;5007833;28;20305;-51
2022/12/22 09:21:46;;;;;;;1.58;1.30;;;7.70;99.20;;;;;;5008470;28;20284;-50
2022/12/22 09:24:15;;;;;;;2.10;1.35;;;7.70;99.20;;;;;;5003925;28;20194;-53
2022/12/22 09:26:43;;;;;;;1.33;1.20;;;7.70;99.20;;;;;;5005608;28;20225;-53
2022/12/22 09:29:14;;;;;;;2.08;1.30;;;7.70;99.20;;;;;;5007203;28;20194;-51
2022/12/22 09:31:44;;;;;;;1.73;1.50;;;7.70;99.20;;;;;;5008436;28;20291;-51
2022/12/22 09:34:13;;;;;;;3.78;1.70;;;7.70;99.30;;;;;;5014312;28;20618;-53
2022/12/22 09:36:46;;;;;;;2.15;1.00;;;7.80;99.40;;;;;;5006749;28;20217;-51
2022/12/22 09:39:14;;;;;;;3.13;1.77;;;7.80;99.40;;;;;;5010788;28;20239;-51
2022/12/22 09:41:45;;;;;;;3.00;1.77;;;7.80;99.30;;;;;;5010020;28;20201;-51
2022/12/22 09:44:19;;;;;;;5.32;3.25;;;7.70;99.40;;;;;;5007686;28;20474;-50
2022/12/22 09:46:50;;;;;;;3.53;2.13;;;7.80;99.90;;;;;;5008497;28;20245;-53
2022/12/22 09:49:19;;;;;;;2.00;1.48;;;7.80;99.90;;;;;;5014685;28;20252;-52
2022/12/22 09:51:51;;;;;;;2.20;1.77;;;7.80;99.90;;;;;;5009235;28;20196;-52
2022/12/22 09:54:20;;;;;;;2.42;2.20;;;7.80;99.90;;;;;;5006782;28;20657;-52
2022/12/22 09:56:49;;;;;;;2.17;1.55;;;7.80;99.90;;;;;;5008235;28;20221;-52
2022/12/22 09:59:20;;;;;;;3.80;2.45;;;7.80;99.90;;;;;;5004917;28;20201;-50
2022/12/22 10:02:05;;;;;;;2.88;1.85;;;7.80;99.90;;;;;;5007527;28;20233;-52
2022/12/22 10:04:44;;;;;;;2.88;2.47;;;7.80;99.90;;;;;;5015450;28;20233;-52
2022/12/22 10:07:21;;;;;;;2.55;1.85;;;7.80;99.90;;;;;;5007352;28;20694;-51
2022/12/22 10:09:49;;;;;;;7.38;2.55;;;7.80;99.90;;;;;;5005334;28;20217;-52
2022/12/22 10:12:21;;;;;;;2.73;2.03;;;7.80;99.90;;;;;;5009278;28;20267;-51
2022/12/22 10:14:52;;;;;;;3.35;1.92;;;7.80;99.90;;;;;;5007667;28;21097;-50
2022/12/22 10:17:26;;;;;;;2.22;1.90;;;7.80;99.90;;;;;;5006667;28;20194;-52
2022/12/22 10:20:09;;;;;;;2.33;1.98;;;7.80;99.90;;;;;;5007426;28;20480;-50
2022/12/22 10:22:47;;;;;;;2.97;2.47;;;7.80;99.90;;;;;;5008703;28;20725;-52
2022/12/22 10:25:30;;;;;;;2.63;2.03;;;7.80;99.90;;;;;;5009352;28;20209;-53
2022/12/22 10:28:22;;;;;;;4.13;2.35;;;7.80;99.90;;;;;;5005583;28;20699;-54
2022/12/22 10:31:10;;;;;;;2.90;1.95;;;7.80;99.90;;;;;;5008493;28;20901;-52
2022/12/22 10:33:41;;;;;;;2.65;2.45;;;7.80;99.90;;;;;;5003984;28;20229;-50
2022/12/22 10:36:16;;;;;;;3.38;2.70;;;7.80;99.90;;;;;;5004975;28;20305;-51
2022/12/22 10:38:56;;;;;;;3.35;2.80;;;7.80;99.90;;;;;;5008440;28;20286;-50
2022/12/22 10:41:27;;;;;;;3.10;2.50;;;7.80;99.90;;;;;;5026582;28;20289;-52
2022/12/22 10:43:57;;;;;;;3.05;2.42;;;7.80;99.90;;;;;;5025586;28;20430;-51
2022/12/22 10:46:36;;;;;;;3.33;2.45;;;7.80;99.90;;;;;;5025344;28;20206;-51
2022/12/22 10:49:20;;;;;;;3.92;2.75;;;7.80;99.90;;;;;;5024808;28;20209;-53
2022/12/22 10:51:51;;;;;;;4.15;2.83;;;7.80;99.90;;;;;;5025380;28;20194;-52
2022/12/22 10:54:31;;;;;;;3.28;2.35;;;7.90;99.90;;;;;;5021256;28;20268;-49
2022/12/22 10:57:06;;;;;;;2.60;2.40;;;7.80;99.90;;;;;;5024251;28;20229;-52
2022/12/22 10:59:47;;;;;;;3.97;2.80;;;7.80;99.90;;;;;;5025133;28;20197;-52
2022/12/22 11:02:39;;;;;;;3.75;2.72;;;7.90;99.90;;;;;;5023517;28;20193;-49
2022/12/22 11:05:11;;;;;;;4.82;3.10;;;7.90;99.90;;;;;;5005091;28;20224;-47
2022/12/22 11:07:41;;;;;;;8.53;4.90;;;7.90;99.90;;;;;;5023202;28;20221;-48
2022/12/22 11:10:19;;;;;;;7.90;5.35;;;8.00;99.90;;;;;;5030000;28;20447;-50
2022/12/22 11:13:11;;;;;;;9.10;5.93;;;8.00;99.90;;;;;;5023036;28;20507;-49
2022/12/22 11:15:45;;;;;;;6.88;5.25;;;8.10;99.90;;;;;;5021966;28;20221;-49
2022/12/22 11:18:31;;;;;;;5.95;4.72;;;8.10;99.90;;;;;;5024967;28;20240;-49
2022/12/22 11:21:06;;;;;;;7.50;4.97;;;8.10;99.90;;;;;;5024959;28;20201;-50
2022/12/22 11:23:42;;;;;;;5.63;4.47;;;8.10;99.90;;;;;;5022513;28;20220;-49
2022/12/22 11:26:17;;;;;;;5.22;4.35;;;8.10;99.90;;;;;;5025356;28;20711;-51
2022/12/22 11:29:01;;;;;;;5.28;4.20;;;8.00;99.90;;;;;;5024026;28;20221;-50
2022/12/22 11:31:59;;;;;;;6.45;4.75;;;8.00;99.90;;;;;;5024649;28;20201;-48
2022/12/22 11:34:41;;;;;;;7.75;4.85;;;8.00;99.90;;;;;;5018173;28;20201;-50
2022/12/22 11:37:26;;;;;;;9.00;5.18;;;8.00;99.90;;;;;;5024302;28;20224;-49
2022/12/22 11:40:00;;;;;;;7.90;5.50;;;8.00;99.90;;;;;;5025608;28;20490;-50
2022/12/22 11:42:45;;;;;;;5.15;4.63;;;8.00;99.90;;;;;;5023808;28;20311;-50
2022/12/22 11:45:35;;;;;;;6.50;4.18;;;8.00;99.90;;;;;;5023462;28;20240;-49
2022/12/22 11:48:32;;;;;;;6.53;4.88;;;8.00;99.90;;;;;;5015385;28;20227;-49
2022/12/22 11:51:07;;;;;;;7.15;4.90;;;8.00;99.90;;;;;;5023460;28;20197;-49
2022/12/22 11:54:07;;;;;;;5.20;3.92;;;8.00;99.90;;;;;;5014996;28;20220;-50
2022/12/22 11:56:42;;;;;;;7.88;4.90;;;8.00;99.90;;;;;;5014043;28;20217;-49
2022/12/22 11:59:30;;;;;;;6.50;4.15;;;8.00;99.90;;;;;;5026424;28;20667;-49
2022/12/22 12:02:29;;;;;;;7.72;4.88;;;8.00;99.90;;;;;;5023428;28;20213;-51
2022/12/22 12:05:32;;;;;;;6.10;4.68;;;8.00;99.90;;;;;;5025147;28;20240;-48
2022/12/22 12:08:09;;;;;;;7.93;4.72;;;8.00;99.90;;;;;;5022823;28;20754;-50
2022/12/22 12:10:46;;;;;;;9.60;5.50;;;8.00;99.90;;;;;;5025284;28;20212;-48
2022/12/22 12:13:23;;;;;;;6.95;5.13;;;8.00;99.90;;;;;;5026150;28;20464;-50
2022/12/22 12:16:10;;;;;;;7.55;5.85;;;8.00;99.90;;;;;;5018802;28;20209;-51
2022/12/22 12:18:57;;;;;;;8.23;6.43;;;8.00;99.90;;;;;;5025837;28;20909;-51
2022/12/22 12:21:28;;;;;;;8.55;6.53;;;8.00;99.90;;;;;;5029343;28;20195;-50
2022/12/22 12:24:39;;;;;;;8.82;6.25;;;8.00;99.90;;;;;;5027795;28;20865;-49
2022/12/22 12:27:22;;;;;;;8.35;6.45;;;8.00;99.90;;;;;;5022968;28;20193;-48
2022/12/22 12:29:58;;;;;;;8.07;5.40;;;8.00;99.90;;;;;;5028591;28;20201;-50
2022/12/22 12:32:52;;;;;;;6.93;5.72;;;8.00;99.90;;;;;;5028637;28;20221;-48
2022/12/22 12:35:49;;;;;;;7.53;5.50;;;8.00;99.90;;;;;;5023934;28;20593;-50
2022/12/22 12:38:26;;;;;;;8.60;5.83;;;8.00;99.90;;;;;;5021996;28;20221;-50
2022/12/22 12:41:23;;;;;;;9.07;6.97;;;8.00;99.90;;;;;;5022370;28;20939;-49
2022/12/22 12:43:55;;;;;;;7.30;5.60;;;8.00;99.90;;;;;;5025294;28;20578;-50
2022/12/22 12:46:46;;;;;;;7.43;5.10;;;8.00;99.90;;;;;;5023985;28;20655;-49
2022/12/22 12:49:51;;;;;;;7.90;6.18;;;8.00;99.90;;;;;;5033130;28;20224;-49
2022/12/22 12:53:16;;;;;;;7.70;6.18;;;8.00;99.90;;;;;;5028350;28;20224;-50
2022/12/22 12:56:04;;;;;;;6.38;5.25;;;8.00;99.90;;;;;;5026693;28;20229;-49
2022/12/22 12:58:51;;;;;;;7.20;5.18;;;8.00;99.90;;;;;;5027587;28;20243;-51
2022/12/22 13:01:55;;;;;;;8.60;5.20;;;8.00;99.90;;;;;;5028635;28;20198;-52
2022/12/22 13:05:02;;;;;;;6.47;4.97;;;8.00;99.90;;;;;;5025048;28;20701;-49
2022/12/22 13:08:19;;;;;;;6.68;5.05;;;8.00;99.90;;;;;;5027675;28;20213;-49
2022/12/22 13:11:28;;;;;;;6.97;4.82;;;8.00;99.90;;;;;;5025899;28;20208;-50
2022/12/22 13:14:50;;;;;;;7.40;5.05;;;8.00;99.90;;;;;;5022089;28;20247;-50
2022/12/22 13:17:33;;;;;;;7.55;4.68;;;8.00;99.90;;;;;;5029343;28;20208;-49
2022/12/22 13:20:03;;;;;;;5.40;4.50;;;8.00;99.90;;;;;;5028382;28;20252;-50
2022/12/22 13:22:32;;;;;;;4.53;4.03;;;8.00;99.90;;;;;;5018361;28;20228;-50
2022/12/22 13:25:03;;;;;;;7.22;4.72;;;8.00;99.90;;;;;;5018390;28;20333;-49
2022/12/22 13:27:36;;;;;;;6.72;5.35;;;8.00;99.90;;;;;;4998063;28;20683;-52
2022/12/22 13:30:06;;;;;;;6.00;5.40;;;8.00;99.90;;;;;;5009098;28;20662;-50
2022/12/22 13:32:56;;;;;;;7.38;5.80;;;8.00;99.90;;;;;;5018279;28;20245;-50
2022/12/22 13:35:31;;;;;;;5.82;4.35;;;8.00;99.90;;;;;;5010296;28;20348;-49
2022/12/22 13:38:04;;;;;;;4.18;3.75;;;8.00;99.90;;;;;;5006973;28;20221;-50
2022/12/22 13:40:40;;;;;;;7.47;4.85;;;8.00;99.90;;;;;;5030372;28;20605;-50
2022/12/22 13:43:14;;;;;;;5.47;4.32;;;8.00;99.90;;;;;;5007278;28;20217;-50
2022/12/22 13:45:44;;;;;;;4.28;3.70;;;8.00;99.90;;;;;;5008171;28;20592;-50
2022/12/22 13:48:15;;;;;;;4.82;3.90;;;8.00;99.90;;;;;;5006663;28;20219;-49
2022/12/22 13:50:47;;;;;;;4.22;3.28;;;8.00;99.90;;;;;;5007514;28;20293;-49
2022/12/22 13:53:19;;;;;;;5.63;4.78;;;8.00;99.90;;;;;;5022873;28;20291;-49
2022/12/22 13:56:13;;;;;;;4.30;3.90;;;8.00;99.90;;;;;;5026194;28;20232;-50
2022/12/22 13:58:44;;;;;;;8.87;4.77;;;8.00;99.90;;;;;;5022693;28;20713;-49
2022/12/22 14:01:18;;;;;;;4.57;3.60;;;8.00;99.90;;;;;;5015902;28;20552;-50
2022/12/22 14:03:49;;;;;;;6.28;4.35;;;8.00;99.90;;;;;;5023215;28;20225;-50
2022/12/22 14:06:30;;;;;;;4.68;3.45;;;8.00;99.90;;;;;;5027360;28;20224;-50
2022/12/22 14:09:11;;;;;;;4.88;3.38;;;8.00;99.90;;;;;;5015809;28;20275;-49
2022/12/22 14:11:39;;;;;;;5.20;4.70;;;8.00;99.90;;;;;;5024632;28;20209;-48
2022/12/22 14:14:22;;;;;;;3.37;3.07;;;8.10;99.90;;;;;;5024028;28;20231;-47
2022/12/22 14:16:53;;;;;;;3.85;3.10;;;8.20;99.90;;;;;;5009156;28;20468;-51
2022/12/22 14:19:23;;;;;;;3.60;3.30;;;8.30;99.90;;;;;;5026337;28;20718;-47
2022/12/22 14:22:02;;;;;;;4.27;3.40;;;8.30;99.90;;;;;;5024648;28;20974;-50
2022/12/22 14:24:35;;;;;;;5.07;3.27;;;8.40;99.90;;;;;;5044764;28;20458;-49
2022/12/22 14:27:15;;;;;;;4.07;3.13;;;8.40;99.90;;;;;;5040097;28;20467;-50
2022/12/22 14:29:45;;;;;;;5.47;3.27;;;8.50;99.90;;;;;;5027066;28;20205;-49
2022/12/22 14:32:33;;;;;;;3.83;3.20;;;8.50;99.90;;;;;;5025559;28;20471;-49
2022/12/22 14:35:02;;;;;;;4.47;3.10;;;8.50;99.90;;;;;;5032299;28;20931;-50
2022/12/22 14:37:30;;;;;;;4.43;3.07;;;8.50;99.90;;;;;;5025386;28;20472;-49
2022/12/22 14:40:00;;;;;;;4.00;3.20;;;8.50;99.90;;;;;;5017157;28;20432;-49
2022/12/22 14:42:33;;;;;;;4.50;3.40;;;8.50;99.90;;;;;;5026195;28;20446;-50
2022/12/22 14:45:04;;;;;;;3.30;2.80;;;8.50;99.90;;;;;;5026608;28;20468;-50
2022/12/22 14:47:37;;;;;;;3.60;3.00;;;8.60;99.90;;;;;;5016076;28;20592;-50
2022/12/22 14:50:17;;;;;;;3.13;2.83;;;8.60;99.90;;;;;;5000504;28;20456;-49
2022/12/22 14:52:49;;;;;;;3.57;2.70;;;8.60;99.90;;;;;;5017287;28;20468;-49
2022/12/22 14:55:26;;;;;;;3.60;3.27;;;8.60;99.90;;;;;;5024485;28;21050;-51
2022/12/22 14:57:59;;;;;;;3.20;2.60;;;8.60;99.90;;;;;;5025971;28;20990;-49
2022/12/22 15:00:33;;;;;;;4.43;3.00;;;8.60;99.90;;;;;;5027248;28;20454;-49
2022/12/22 15:03:04;;;;;;;3.03;2.70;;;8.60;99.90;;;;;;5026107;28;20562;-50
2022/12/22 15:05:37;;;;;;;4.30;3.90;;;8.60;99.90;;;;;;5026080;28;20582;-50
2022/12/22 15:08:07;;;;;;;2.87;2.40;;;8.60;99.90;;;;;;5022010;28;20983;-49
2022/12/22 15:10:42;;;;;;;3.30;2.70;;;8.60;99.90;;;;;;5005538;28;20445;-49
2022/12/22 15:13:18;;;;;;;3.53;2.30;;;8.60;99.90;;;;;;5019552;28;20537;-49
2022/12/22 15:15:49;;;;;;;3.53;2.40;;;8.60;99.90;;;;;;5026507;28;20457;-50
2022/12/22 15:18:22;;;;;;;3.13;2.70;;;8.60;99.90;;;;;;5024236;28;20499;-50
2022/12/22 15:20:50;;;;;;;2.80;2.20;;;8.60;99.90;;;;;;5024534;28;20527;-50
2022/12/22 15:23:18;;;;;;;2.23;2.03;;;8.60;99.90;;;;;;5025499;28;20468;-51
2022/12/22 15:25:47;;;;;;;2.27;1.90;;;8.60;99.90;;;;;;5023829;28;20474;-51
2022/12/22 15:28:15;;;;;;;3.40;2.77;;;8.60;99.90;;;;;;5026696;28;20907;-51
2022/12/22 15:30:44;;;;;;;3.20;2.47;;;8.60;99.90;;;;;;5025281;28;20436;-50
2022/12/22 15:33:16;;;;;;;2.40;2.23;;;8.60;99.90;;;;;;5026541;28;20467;-52
2022/12/22 15:35:45;;;;;;;2.10;1.87;;;8.60;99.90;;;;;;5023508;28;20535;-51
2022/12/22 15:38:16;;;;;;;2.37;2.17;;;8.60;99.90;;;;;;5002692;28;20485;-51
2022/12/22 15:40:44;;;;;;;2.77;2.47;;;8.60;99.90;;;;;;5021865;28;20535;-51
2022/12/22 15:43:13;;;;;;;3.07;1.83;;;8.60;99.90;;;;;;5010146;28;20558;-52
2022/12/22 15:46:03;;;;;;;2.27;1.80;;;8.60;99.90;;;;;;5022714;28;21185;-50
2022/12/22 15:48:35;;;;;;;3.23;2.27;;;8.60;99.90;;;;;;5021570;28;20468;-52
2022/12/22 15:51:06;;;;;;;2.20;2.00;;;8.60;99.90;;;;;;5041658;28;20796;-52
2022/12/22 15:53:36;;;;;;;2.30;2.10;;;8.60;99.90;;;;;;5029886;28;20899;-52
2022/12/22 15:56:06;;;;;;;5.50;2.33;;;8.60;99.90;;;;;;5028680;28;20542;-51
2022/12/22 15:58:39;;;;;;;2.22;2.03;;;8.60;99.90;;;;;;5028549;28;20812;-53
2022/12/22 16:01:10;;;;;;;2.73;2.20;;;8.60;99.90;;;;;;5027949;28;21011;-51
2022/12/22 16:03:40;;;;;;;3.40;2.17;;;8.60;99.90;;;;;;5041056;28;20514;-51
2022/12/22 16:06:13;;;;;;;2.33;2.13;;;8.60;99.90;;;;;;5027171;28;20460;-51
2022/12/22 16:08:45;;;;;;;2.40;2.13;;;8.60;99.90;;;;;;5027939;28;21116;-52
2022/12/22 16:11:14;;;;;;;6.43;2.20;;;8.60;99.90;;;;;;5023362;28;20451;-51
2022/12/22 16:13:43;;;;;;;2.30;2.10;;;8.60;99.90;;;;;;5028810;28;20479;-51
2022/12/22 16:16:11;;;;;;;2.27;2.07;;;8.60;99.90;;;;;;5028896;28;20468;-52
2022/12/22 16:18:42;;;;;;;2.07;1.87;;;8.60;99.90;;;;;;5027484;28;20471;-53
2022/12/22 16:21:16;;;;;;;2.23;2.00;;;8.60;99.90;;;;;;5035977;28;20844;-51
2022/12/22 16:23:50;;;;;;;2.50;2.10;;;8.60;99.90;;;;;;5008134;28;20472;-53
2022/12/22 16:26:20;;;;;;;2.20;2.00;;;8.60;99.90;;;;;;5009769;28;20445;-54
2022/12/22 16:28:49;;;;;;;4.00;2.33;;;8.60;99.90;;;;;;5008527;28;20472;-50
2022/12/22 16:31:19;;;;;;;2.13;1.93;;;8.60;99.90;;;;;;5017866;28;20886;-50
2022/12/22 16:33:50;;;;;;;2.83;2.20;;;8.60;99.90;;;;;;5010970;28;20853;-55
2022/12/22 16:36:19;;;;;;;2.20;1.97;;;8.60;99.90;;;;;;5015952;28;20450;-50
2022/12/22 16:38:48;;;;;;;2.17;1.97;;;8.60;99.90;;;;;;5016505;28;20825;-52
2022/12/22 16:41:20;;;;;;;1.90;1.80;;;8.60;99.90;;;;;;5008352;28;20441;-52
2022/12/22 16:43:49;;;;;;;2.30;1.87;;;8.60;99.90;;;;;;5025247;28;20484;-51
2022/12/22 16:46:21;;;;;;;2.23;2.07;;;8.60;99.90;;;;;;5023705;28;20541;-53
2022/12/22 16:48:54;;;;;;;2.27;1.77;;;8.60;99.90;;;;;;5027186;28;20478;-49
2022/12/22 16:51:25;;;;;;;1.83;1.70;;;8.60;99.90;;;;;;5038245;28;20445;-51
2022/12/22 16:53:53;;;;;;;2.40;1.40;;;8.60;99.90;;;;;;5018731;28;20982;-54
2022/12/22 16:56:25;;;;;;;2.10;1.67;;;8.60;99.90;;;;;;5029562;28;20440;-52
2022/12/22 16:58:54;;;;;;;2.30;2.10;;;8.60;99.90;;;;;;5019203;28;20480;-51
2022/12/22 17:01:34;;;;;;;3.00;1.80;;;8.60;99.90;;;;;;5028983;28;20433;-52
2022/12/22 17:04:06;;;;;;;1.97;1.80;;;8.60;99.90;;;;;;5032319;28;20913;-54
2022/12/22 17:06:36;;;;;;;3.90;1.87;;;8.60;99.90;;;;;;5045011;28;20456;-52
2022/12/22 17:09:11;;;;;;;2.60;1.53;;;8.60;99.90;;;;;;5028881;28;20444;-53
2022/12/22 17:11:39;;;;;;;2.17;1.83;;;8.60;99.90;;;;;;5020628;28;20446;-50